sensor_id;sensor_type;location;lat;lon;timestamp;temperature;humidity
14349;DHT22;7258;50.376;8.742;2023-07-13T00:01:15;18.10;97.70
14349;DHT22;7258;50.376;8.742;2023-07-13T00:03:18;18.10;97.70
14349;DHT22;7258;50.376;8.742;2023-07-13T00:05:23;18.10;97.70
14349;DHT22;7258;50.376;8.742;2023-07-13T00:07:26;18.10;97.80
14349;DHT22;7258;50.376;8.742;2023-07-13T00:09:29;18.10;97.90
14349;DHT22;7258;50.376;8.742;2023-07-13T00:11:34;18.10;97.90
14349;DHT22;7258;50.376;8.742;2023-07-13T00:13:37;18.10;98.00
14349;DHT22;7258;50.376;8.742;2023-07-13T00:15:40;18.10;98.00
14349;DHT22;7258;50.376;8.742;2023-07-13T00:17:43;18.10;98.20
14349;DHT22;7258;50.376;8.742;2023-07-13T00:19:46;18.20;97.90
14349;DHT22;7258;50.376;8.742;2023-07-13T00:21:51;18.20;97.70
14349;DHT22;7258;50.376;8.742;2023-07-13T00:23:57;18.20;97.60
14349;DHT22;7258;50.376;8.742;2023-07-13T00:26:03;18.30;97.40
14349;DHT22;7258;50.376;8.742;2023-07-13T00:28:08;18.30;97.30
14349;DHT22;7258;50.376;8.742;2023-07-13T00:30:11;18.40;97.20
14349;DHT22;7258;50.376;8.742;2023-07-13T00:32:14;18.40;97.00
14349;DHT22;7258;50.376;8.742;2023-07-13T00:34:17;18.40;97.00
14349;DHT22;7258;50.376;8.742;2023-07-13T00:36:20;18.50;96.90
14349;DHT22;7258;50.376;8.742;2023-07-13T00:38:24;18.40;96.90
14349;DHT22;7258;50.376;8.742;2023-07-13T00:40:27;18.50;97.00
14349;DHT22;7258;50.376;8.742;2023-07-13T00:42:30;18.50;97.10
14349;DHT22;7258;50.376;8.742;2023-07-13T00:44:33;18.50;97.00
14349;DHT22;7258;50.376;8.742;2023-07-13T00:46:36;18.50;97.00
14349;DHT22;7258;50.376;8.742;2023-07-13T00:48:40;18.50;96.90
14349;DHT22;7258;50.376;8.742;2023-07-13T00:50:44;18.50;96.80
14349;DHT22;7258;50.376;8.742;2023-07-13T00:52:52;18.50;96.60
14349;DHT22;7258;50.376;8.742;2023-07-13T00:54:57;18.50;96.50
14349;DHT22;7258;50.376;8.742;2023-07-13T00:57:03;18.60;96.40
14349;DHT22;7258;50.376;8.742;2023-07-13T00:59:06;18.60;96.30
14349;DHT22;7258;50.376;8.742;2023-07-13T01:01:13;18.60;96.40
14349;DHT22;7258;50.376;8.742;2023-07-13T01:03:16;18.60;96.30
14349;DHT22;7258;50.376;8.742;2023-07-13T01:05:20;18.60;96.30
14349;DHT22;7258;50.376;8.742;2023-07-13T01:07:24;18.60;96.30
14349;DHT22;7258;50.376;8.742;2023-07-13T01:09:27;18.60;96.30
14349;DHT22;7258;50.376;8.742;2023-07-13T01:11:32;18.50;96.30
14349;DHT22;7258;50.376;8.742;2023-07-13T01:13:39;18.50;96.30
14349;DHT22;7258;50.376;8.742;2023-07-13T01:15:44;18.50;96.30
14349;DHT22;7258;50.376;8.742;2023-07-13T01:17:47;18.40;96.30
14349;DHT22;7258;50.376;8.742;2023-07-13T01:19:50;18.40;96.30
14349;DHT22;7258;50.376;8.742;2023-07-13T01:21:54;18.40;96.30
14349;DHT22;7258;50.376;8.742;2023-07-13T01:23:57;18.40;96.30
14349;DHT22;7258;50.376;8.742;2023-07-13T01:26:00;18.40;96.30
14349;DHT22;7258;50.376;8.742;2023-07-13T01:28:05;18.40;96.30
14349;DHT22;7258;50.376;8.742;2023-07-13T01:30:09;18.40;96.30
14349;DHT22;7258;50.376;8.742;2023-07-13T01:32:14;18.40;96.20
14349;DHT22;7258;50.376;8.742;2023-07-13T01:34:18;18.40;96.40
14349;DHT22;7258;50.376;8.742;2023-07-13T01:36:21;18.30;96.50
14349;DHT22;7258;50.376;8.742;2023-07-13T01:38:25;18.30;96.60
14349;DHT22;7258;50.376;8.742;2023-07-13T01:40:29;18.20;96.70
14349;DHT22;7258;50.376;8.742;2023-07-13T01:42:32;18.20;96.80
14349;DHT22;7258;50.376;8.742;2023-07-13T01:44:35;18.10;96.80
14349;DHT22;7258;50.376;8.742;2023-07-13T01:46:38;18.10;96.80
14349;DHT22;7258;50.376;8.742;2023-07-13T01:48:41;18.10;96.70
14349;DHT22;7258;50.376;8.742;2023-07-13T01:50:44;18.10;96.80
14349;DHT22;7258;50.376;8.742;2023-07-13T01:52:47;18.10;96.80
14349;DHT22;7258;50.376;8.742;2023-07-13T01:54:51;18.10;96.80
14349;DHT22;7258;50.376;8.742;2023-07-13T01:56:56;18.10;96.80
14349;DHT22;7258;50.376;8.742;2023-07-13T01:59:02;18.10;96.90
14349;DHT22;7258;50.376;8.742;2023-07-13T02:01:05;18.00;96.80
14349;DHT22;7258;50.376;8.742;2023-07-13T02:03:08;18.00;96.80
14349;DHT22;7258;50.376;8.742;2023-07-13T02:05:11;18.00;96.80
14349;DHT22;7258;50.376;8.742;2023-07-13T02:07:14;17.90;96.80
14349;DHT22;7258;50.376;8.742;2023-07-13T02:09:17;18.00;96.90
14349;DHT22;7258;50.376;8.742;2023-07-13T02:11:22;17.90;97.00
14349;DHT22;7258;50.376;8.742;2023-07-13T02:13:24;17.80;97.20
14349;DHT22;7258;50.376;8.742;2023-07-13T02:15:27;17.70;97.40
14349;DHT22;7258;50.376;8.742;2023-07-13T02:17:33;17.70;97.60
14349;DHT22;7258;50.376;8.742;2023-07-13T02:19:37;17.60;97.80
14349;DHT22;7258;50.376;8.742;2023-07-13T02:21:40;17.50;98.00
14349;DHT22;7258;50.376;8.742;2023-07-13T02:23:43;17.40;98.20
14349;DHT22;7258;50.376;8.742;2023-07-13T02:25:46;17.30;98.40
14349;DHT22;7258;50.376;8.742;2023-07-13T02:27:50;17.30;98.40
14349;DHT22;7258;50.376;8.742;2023-07-13T02:29:53;17.20;98.40
14349;DHT22;7258;50.376;8.742;2023-07-13T02:31:55;17.20;98.30
14349;DHT22;7258;50.376;8.742;2023-07-13T02:33:58;17.20;98.20
14349;DHT22;7258;50.376;8.742;2023-07-13T02:36:02;17.20;98.00
14349;DHT22;7258;50.376;8.742;2023-07-13T02:38:07;17.20;98.10
14349;DHT22;7258;50.376;8.742;2023-07-13T02:40:10;17.20;97.90
14349;DHT22;7258;50.376;8.742;2023-07-13T02:42:12;17.20;98.30
14349;DHT22;7258;50.376;8.742;2023-07-13T02:44:16;17.10;98.30
14349;DHT22;7258;50.376;8.742;2023-07-13T02:46:19;17.00;98.50
14349;DHT22;7258;50.376;8.742;2023-07-13T02:48:22;17.00;98.60
14349;DHT22;7258;50.376;8.742;2023-07-13T02:50:25;16.90;98.70
14349;DHT22;7258;50.376;8.742;2023-07-13T02:52:29;16.80;98.60
14349;DHT22;7258;50.376;8.742;2023-07-13T02:54:34;16.80;98.50
14349;DHT22;7258;50.376;8.742;2023-07-13T02:56:37;16.80;98.50
14349;DHT22;7258;50.376;8.742;2023-07-13T02:58:40;16.70;98.50
14349;DHT22;7258;50.376;8.742;2023-07-13T03:00:45;16.70;98.60
14349;DHT22;7258;50.376;8.742;2023-07-13T03:02:49;16.70;98.60
14349;DHT22;7258;50.376;8.742;2023-07-13T03:04:52;16.70;98.70
14349;DHT22;7258;50.376;8.742;2023-07-13T03:06:55;16.60;98.80
14349;DHT22;7258;50.376;8.742;2023-07-13T03:08:59;16.50;99.10
14349;DHT22;7258;50.376;8.742;2023-07-13T03:11:03;16.50;99.30
14349;DHT22;7258;50.376;8.742;2023-07-13T03:13:06;16.40;99.40
14349;DHT22;7258;50.376;8.742;2023-07-13T03:15:10;16.40;99.40
14349;DHT22;7258;50.376;8.742;2023-07-13T03:17:14;16.40;99.50
14349;DHT22;7258;50.376;8.742;2023-07-13T03:19:18;16.40;99.60
14349;DHT22;7258;50.376;8.742;2023-07-13T03:21:22;16.40;99.50
14349;DHT22;7258;50.376;8.742;2023-07-13T03:23:25;16.30;99.50
14349;DHT22;7258;50.376;8.742;2023-07-13T03:25:28;16.30;99.60
14349;DHT22;7258;50.376;8.742;2023-07-13T03:27:31;16.30;99.60
14349;DHT22;7258;50.376;8.742;2023-07-13T03:29:34;16.30;99.80
14349;DHT22;7258;50.376;8.742;2023-07-13T03:31:36;16.20;99.90
14349;DHT22;7258;50.376;8.742;2023-07-13T03:33:41;16.20;99.90
14349;DHT22;7258;50.376;8.742;2023-07-13T03:35:45;16.10;99.90
14349;DHT22;7258;50.376;8.742;2023-07-13T03:37:47;16.00;99.90
14349;DHT22;7258;50.376;8.742;2023-07-13T03:39:49;15.90;99.90
14349;DHT22;7258;50.376;8.742;2023-07-13T03:41:52;15.90;99.90
14349;DHT22;7258;50.376;8.742;2023-07-13T03:43:55;15.80;99.90
14349;DHT22;7258;50.376;8.742;2023-07-13T03:45:58;15.80;99.90
14349;DHT22;7258;50.376;8.742;2023-07-13T03:48:01;15.70;99.90
14349;DHT22;7258;50.376;8.742;2023-07-13T03:50:07;15.70;99.90
14349;DHT22;7258;50.376;8.742;2023-07-13T03:52:10;15.60;99.90
14349;DHT22;7258;50.376;8.742;2023-07-13T03:54:13;15.60;99.90
14349;DHT22;7258;50.376;8.742;2023-07-13T03:56:17;15.70;99.90
14349;DHT22;7258;50.376;8.742;2023-07-13T03:58:26;15.70;99.90
14349;DHT22;7258;50.376;8.742;2023-07-13T04:00:29;15.70;99.90
14349;DHT22;7258;50.376;8.742;2023-07-13T04:02:32;15.70;99.90
14349;DHT22;7258;50.376;8.742;2023-07-13T04:04:37;15.70;99.90
14349;DHT22;7258;50.376;8.742;2023-07-13T04:06:42;15.70;99.90
14349;DHT22;7258;50.376;8.742;2023-07-13T04:08:45;15.70;99.90
14349;DHT22;7258;50.376;8.742;2023-07-13T04:10:47;15.70;99.90
14349;DHT22;7258;50.376;8.742;2023-07-13T04:12:50;15.70;99.90
14349;DHT22;7258;50.376;8.742;2023-07-13T04:14:53;15.70;99.90
14349;DHT22;7258;50.376;8.742;2023-07-13T04:16:56;15.60;99.90
14349;DHT22;7258;50.376;8.742;2023-07-13T04:18:59;15.60;99.90
14349;DHT22;7258;50.376;8.742;2023-07-13T04:21:03;15.60;99.90
14349;DHT22;7258;50.376;8.742;2023-07-13T04:23:08;15.60;99.90
14349;DHT22;7258;50.376;8.742;2023-07-13T04:25:10;15.70;99.90
14349;DHT22;7258;50.376;8.742;2023-07-13T04:27:13;15.70;99.90
14349;DHT22;7258;50.376;8.742;2023-07-13T04:29:16;15.70;99.90
14349;DHT22;7258;50.376;8.742;2023-07-13T04:31:19;15.80;99.90
14349;DHT22;7258;50.376;8.742;2023-07-13T04:33:22;15.80;99.90
14349;DHT22;7258;50.376;8.742;2023-07-13T04:35:26;15.90;99.90
14349;DHT22;7258;50.376;8.742;2023-07-13T04:37:28;15.90;99.90
14349;DHT22;7258;50.376;8.742;2023-07-13T04:39:33;16.00;99.90
14349;DHT22;7258;50.376;8.742;2023-07-13T04:41:38;16.10;99.90
14349;DHT22;7258;50.376;8.742;2023-07-13T04:43:41;16.10;99.90
14349;DHT22;7258;50.376;8.742;2023-07-13T04:45:45;16.20;99.90
14349;DHT22;7258;50.376;8.742;2023-07-13T04:47:48;16.20;99.90
14349;DHT22;7258;50.376;8.742;2023-07-13T04:49:51;16.20;99.90
14349;DHT22;7258;50.376;8.742;2023-07-13T04:51:53;16.20;99.90
14349;DHT22;7258;50.376;8.742;2023-07-13T04:53:56;16.30;99.90
14349;DHT22;7258;50.376;8.742;2023-07-13T04:56:04;16.30;99.90
14349;DHT22;7258;50.376;8.742;2023-07-13T04:58:07;16.40;99.90
14349;DHT22;7258;50.376;8.742;2023-07-13T05:00:11;16.40;99.90
14349;DHT22;7258;50.376;8.742;2023-07-13T05:02:14;16.50;99.90
14349;DHT22;7258;50.376;8.742;2023-07-13T05:04:16;16.50;99.90
14349;DHT22;7258;50.376;8.742;2023-07-13T05:06:19;16.60;99.90
14349;DHT22;7258;50.376;8.742;2023-07-13T05:08:22;16.70;99.90
14349;DHT22;7258;50.376;8.742;2023-07-13T05:10:25;16.70;99.90
14349;DHT22;7258;50.376;8.742;2023-07-13T05:12:30;16.80;99.90
14349;DHT22;7258;50.376;8.742;2023-07-13T05:14:33;16.90;99.90
14349;DHT22;7258;50.376;8.742;2023-07-13T05:16:36;17.00;99.90
14349;DHT22;7258;50.376;8.742;2023-07-13T05:18:39;17.00;99.90
14349;DHT22;7258;50.376;8.742;2023-07-13T05:20:44;17.10;99.90
14349;DHT22;7258;50.376;8.742;2023-07-13T05:22:47;17.20;99.90
14349;DHT22;7258;50.376;8.742;2023-07-13T05:24:50;17.20;99.80
14349;DHT22;7258;50.376;8.742;2023-07-13T05:26:53;17.30;99.20
14349;DHT22;7258;50.376;8.742;2023-07-13T05:28:57;17.40;99.30
14349;DHT22;7258;50.376;8.742;2023-07-13T05:31:00;17.50;98.50
14349;DHT22;7258;50.376;8.742;2023-07-13T05:33:03;17.60;98.50
14349;DHT22;7258;50.376;8.742;2023-07-13T05:35:06;17.70;98.20
14349;DHT22;7258;50.376;8.742;2023-07-13T05:37:09;17.80;97.50
14349;DHT22;7258;50.376;8.742;2023-07-13T05:39:12;17.90;97.30
14349;DHT22;7258;50.376;8.742;2023-07-13T05:41:15;18.00;97.30
14349;DHT22;7258;50.376;8.742;2023-07-13T05:43:18;18.10;97.20
14349;DHT22;7258;50.376;8.742;2023-07-13T05:45:22;18.20;97.20
14349;DHT22;7258;50.376;8.742;2023-07-13T05:47:25;18.30;96.70
14349;DHT22;7258;50.376;8.742;2023-07-13T05:49:29;18.40;96.80
14349;DHT22;7258;50.376;8.742;2023-07-13T05:51:32;18.50;96.70
14349;DHT22;7258;50.376;8.742;2023-07-13T05:53:35;18.60;96.50
14349;DHT22;7258;50.376;8.742;2023-07-13T05:55:41;18.70;96.40
14349;DHT22;7258;50.376;8.742;2023-07-13T05:57:44;18.90;96.40
14349;DHT22;7258;50.376;8.742;2023-07-13T05:59:47;19.00;95.80
14349;DHT22;7258;50.376;8.742;2023-07-13T06:01:51;19.10;95.50
14349;DHT22;7258;50.376;8.742;2023-07-13T06:03:54;19.20;95.10
14349;DHT22;7258;50.376;8.742;2023-07-13T06:05:58;19.40;95.20
14349;DHT22;7258;50.376;8.742;2023-07-13T06:08:02;19.50;94.50
14349;DHT22;7258;50.376;8.742;2023-07-13T06:10:06;19.70;94.40
14349;DHT22;7258;50.376;8.742;2023-07-13T06:12:09;19.80;94.20
14349;DHT22;7258;50.376;8.742;2023-07-13T06:14:12;19.80;93.80
14349;DHT22;7258;50.376;8.742;2023-07-13T06:16:16;19.90;93.80
14349;DHT22;7258;50.376;8.742;2023-07-13T06:18:20;19.90;93.40
14349;DHT22;7258;50.376;8.742;2023-07-13T06:20:23;20.10;93.50
14349;DHT22;7258;50.376;8.742;2023-07-13T06:22:26;20.10;93.10
14349;DHT22;7258;50.376;8.742;2023-07-13T06:24:29;20.10;92.70
14349;DHT22;7258;50.376;8.742;2023-07-13T06:26:32;20.10;92.60
14349;DHT22;7258;50.376;8.742;2023-07-13T06:28:35;20.20;92.60
14349;DHT22;7258;50.376;8.742;2023-07-13T06:30:39;20.30;92.50
14349;DHT22;7258;50.376;8.742;2023-07-13T06:32:42;20.50;92.70
14349;DHT22;7258;50.376;8.742;2023-07-13T06:34:46;20.60;92.20
14349;DHT22;7258;50.376;8.742;2023-07-13T06:36:49;20.70;92.40
14349;DHT22;7258;50.376;8.742;2023-07-13T06:38:52;20.70;91.30
14349;DHT22;7258;50.376;8.742;2023-07-13T06:40:54;20.70;91.70
14349;DHT22;7258;50.376;8.742;2023-07-13T06:42:57;20.70;91.60
14349;DHT22;7258;50.376;8.742;2023-07-13T06:45:00;20.80;91.30
14349;DHT22;7258;50.376;8.742;2023-07-13T06:47:04;20.70;91.30
14349;DHT22;7258;50.376;8.742;2023-07-13T06:49:08;20.60;91.20
14349;DHT22;7258;50.376;8.742;2023-07-13T06:51:11;20.70;91.60
14349;DHT22;7258;50.376;8.742;2023-07-13T06:53:15;20.70;91.00
14349;DHT22;7258;50.376;8.742;2023-07-13T06:55:17;20.70;91.20
14349;DHT22;7258;50.376;8.742;2023-07-13T06:57:19;20.90;91.30
14349;DHT22;7258;50.376;8.742;2023-07-13T06:59:22;20.90;90.60
14349;DHT22;7258;50.376;8.742;2023-07-13T07:01:25;20.90;90.90
14349;DHT22;7258;50.376;8.742;2023-07-13T07:03:28;20.90;90.90
14349;DHT22;7258;50.376;8.742;2023-07-13T07:05:31;21.00;90.90
14349;DHT22;7258;50.376;8.742;2023-07-13T07:07:35;21.10;90.40
14349;DHT22;7258;50.376;8.742;2023-07-13T07:09:38;21.10;90.70
14349;DHT22;7258;50.376;8.742;2023-07-13T07:11:41;21.30;90.30
14349;DHT22;7258;50.376;8.742;2023-07-13T07:14:03;21.40;90.30
14349;DHT22;7258;50.376;8.742;2023-07-13T07:16:06;21.50;90.20
14349;DHT22;7258;50.376;8.742;2023-07-13T07:18:10;21.50;89.20
14349;DHT22;7258;50.376;8.742;2023-07-13T07:20:13;21.30;89.90
14349;DHT22;7258;50.376;8.742;2023-07-13T07:22:16;21.30;90.10
14349;DHT22;7258;50.376;8.742;2023-07-13T07:24:20;21.20;90.00
14349;DHT22;7258;50.376;8.742;2023-07-13T07:26:23;21.30;89.80
14349;DHT22;7258;50.376;8.742;2023-07-13T07:28:31;21.30;89.90
14349;DHT22;7258;50.376;8.742;2023-07-13T07:30:36;21.40;90.10
14349;DHT22;7258;50.376;8.742;2023-07-13T07:32:42;21.40;89.30
14349;DHT22;7258;50.376;8.742;2023-07-13T07:34:48;21.50;89.70
14349;DHT22;7258;50.376;8.742;2023-07-13T07:36:51;21.60;89.10
14349;DHT22;7258;50.376;8.742;2023-07-13T07:38:57;21.60;88.50
14349;DHT22;7258;50.376;8.742;2023-07-13T07:41:03;21.60;89.80
14349;DHT22;7258;50.376;8.742;2023-07-13T07:43:10;21.70;89.00
14349;DHT22;7258;50.376;8.742;2023-07-13T07:45:14;21.70;88.40
14349;DHT22;7258;50.376;8.742;2023-07-13T07:47:17;21.70;88.50
14349;DHT22;7258;50.376;8.742;2023-07-13T07:49:20;21.80;88.50
14349;DHT22;7258;50.376;8.742;2023-07-13T07:51:23;22.10;86.80
14349;DHT22;7258;50.376;8.742;2023-07-13T07:53:26;22.10;86.90
14349;DHT22;7258;50.376;8.742;2023-07-13T07:55:29;22.10;87.10
14349;DHT22;7258;50.376;8.742;2023-07-13T07:57:36;22.30;86.40
14349;DHT22;7258;50.376;8.742;2023-07-13T07:59:42;22.40;86.90
14349;DHT22;7258;50.376;8.742;2023-07-13T08:01:48;22.50;85.80
14349;DHT22;7258;50.376;8.742;2023-07-13T08:03:54;22.50;84.90
14349;DHT22;7258;50.376;8.742;2023-07-13T08:06:02;22.60;85.20
14349;DHT22;7258;50.376;8.742;2023-07-13T08:08:07;23.00;84.50
14349;DHT22;7258;50.376;8.742;2023-07-13T08:10:10;23.10;84.00
14349;DHT22;7258;50.376;8.742;2023-07-13T08:12:13;23.10;84.40
14349;DHT22;7258;50.376;8.742;2023-07-13T08:14:20;23.40;83.40
14349;DHT22;7258;50.376;8.742;2023-07-13T08:16:23;23.30;82.80
14349;DHT22;7258;50.376;8.742;2023-07-13T08:18:27;23.40;82.10
14349;DHT22;7258;50.376;8.742;2023-07-13T08:20:30;23.20;81.50
14349;DHT22;7258;50.376;8.742;2023-07-13T08:22:33;23.00;82.20
14349;DHT22;7258;50.376;8.742;2023-07-13T08:24:36;23.20;82.70
14349;DHT22;7258;50.376;8.742;2023-07-13T08:26:39;23.10;82.30
14349;DHT22;7258;50.376;8.742;2023-07-13T08:28:42;23.20;81.50
14349;DHT22;7258;50.376;8.742;2023-07-13T08:30:46;23.10;81.60
14349;DHT22;7258;50.376;8.742;2023-07-13T08:32:50;23.00;80.70
14349;DHT22;7258;50.376;8.742;2023-07-13T08:34:53;23.00;80.00
14349;DHT22;7258;50.376;8.742;2023-07-13T08:36:56;23.00;78.50
14349;DHT22;7258;50.376;8.742;2023-07-13T08:38:59;22.80;78.70
14349;DHT22;7258;50.376;8.742;2023-07-13T08:41:11;22.70;80.20
14349;DHT22;7258;50.376;8.742;2023-07-13T08:43:17;22.70;80.00
14349;DHT22;7258;50.376;8.742;2023-07-13T08:45:24;22.80;79.80
14349;DHT22;7258;50.376;8.742;2023-07-13T08:47:33;22.70;79.40
14349;DHT22;7258;50.376;8.742;2023-07-13T08:49:39;22.50;79.90
14349;DHT22;7258;50.376;8.742;2023-07-13T08:51:45;22.40;80.30
14349;DHT22;7258;50.376;8.742;2023-07-13T08:53:50;22.40;81.00
14349;DHT22;7258;50.376;8.742;2023-07-13T08:55:58;22.40;81.00
14349;DHT22;7258;50.376;8.742;2023-07-13T08:58:05;22.60;80.40
14349;DHT22;7258;50.376;8.742;2023-07-13T09:00:15;22.60;80.10
14349;DHT22;7258;50.376;8.742;2023-07-13T09:02:26;22.70;80.00
14349;DHT22;7258;50.376;8.742;2023-07-13T09:04:35;22.80;79.40
14349;DHT22;7258;50.376;8.742;2023-07-13T09:06:49;22.80;78.90
14349;DHT22;7258;50.376;8.742;2023-07-13T09:08:58;22.80;79.10
14349;DHT22;7258;50.376;8.742;2023-07-13T09:11:21;23.00;79.30
14349;DHT22;7258;50.376;8.742;2023-07-13T09:13:31;23.20;79.10
14349;DHT22;7258;50.376;8.742;2023-07-13T09:15:39;23.20;78.10
14349;DHT22;7258;50.376;8.742;2023-07-13T09:17:48;23.40;78.50
14349;DHT22;7258;50.376;8.742;2023-07-13T09:19:58;23.60;78.10
14349;DHT22;7258;50.376;8.742;2023-07-13T09:22:10;23.80;77.30
14349;DHT22;7258;50.376;8.742;2023-07-13T09:24:29;24.00;78.20
14349;DHT22;7258;50.376;8.742;2023-07-13T09:26:33;24.00;76.40
14349;DHT22;7258;50.376;8.742;2023-07-13T09:28:39;24.10;77.00
14349;DHT22;7258;50.376;8.742;2023-07-13T09:30:50;24.00;75.40
14349;DHT22;7258;50.376;8.742;2023-07-13T09:32:55;23.90;76.00
14349;DHT22;7258;50.376;8.742;2023-07-13T09:35:01;23.80;76.10
14349;DHT22;7258;50.376;8.742;2023-07-13T09:37:11;23.90;75.00
14349;DHT22;7258;50.376;8.742;2023-07-13T09:39:20;23.80;75.00
14349;DHT22;7258;50.376;8.742;2023-07-13T09:41:31;23.80;76.20
14349;DHT22;7258;50.376;8.742;2023-07-13T09:43:38;24.10;76.30
14349;DHT22;7258;50.376;8.742;2023-07-13T09:45:41;24.30;74.70
14349;DHT22;7258;50.376;8.742;2023-07-13T09:47:47;24.50;75.20
14349;DHT22;7258;50.376;8.742;2023-07-13T09:49:55;24.70;73.30
14349;DHT22;7258;50.376;8.742;2023-07-13T09:52:09;24.70;73.00
14349;DHT22;7258;50.376;8.742;2023-07-13T09:54:18;24.50;72.10
14349;DHT22;7258;50.376;8.742;2023-07-13T09:56:23;24.50;72.40
14349;DHT22;7258;50.376;8.742;2023-07-13T09:58:30;24.50;71.40
14349;DHT22;7258;50.376;8.742;2023-07-13T10:00:33;24.80;72.30
14349;DHT22;7258;50.376;8.742;2023-07-13T10:02:36;24.80;71.20
14349;DHT22;7258;50.376;8.742;2023-07-13T10:04:39;24.80;71.00
14349;DHT22;7258;50.376;8.742;2023-07-13T10:06:44;24.90;71.70
14349;DHT22;7258;50.376;8.742;2023-07-13T10:08:50;24.80;71.30
14349;DHT22;7258;50.376;8.742;2023-07-13T10:10:57;24.90;72.10
14349;DHT22;7258;50.376;8.742;2023-07-13T10:13:02;25.00;73.20
14349;DHT22;7258;50.376;8.742;2023-07-13T10:15:14;25.10;72.10
14349;DHT22;7258;50.376;8.742;2023-07-13T10:17:28;25.20;71.20
14349;DHT22;7258;50.376;8.742;2023-07-13T10:19:35;25.20;70.70
14349;DHT22;7258;50.376;8.742;2023-07-13T10:21:43;25.20;72.20
14349;DHT22;7258;50.376;8.742;2023-07-13T10:23:52;25.30;71.20
14349;DHT22;7258;50.376;8.742;2023-07-13T10:25:57;25.50;70.80
14349;DHT22;7258;50.376;8.742;2023-07-13T10:28:06;25.50;70.50
14349;DHT22;7258;50.376;8.742;2023-07-13T10:30:19;25.70;70.50
14349;DHT22;7258;50.376;8.742;2023-07-13T10:32:24;25.80;70.00
14349;DHT22;7258;50.376;8.742;2023-07-13T10:34:28;25.90;70.30
14349;DHT22;7258;50.376;8.742;2023-07-13T10:36:35;25.90;69.30
14349;DHT22;7258;50.376;8.742;2023-07-13T10:38:43;26.00;69.90
14349;DHT22;7258;50.376;8.742;2023-07-13T10:40:54;26.20;69.60
14349;DHT22;7258;50.376;8.742;2023-07-13T10:43:00;26.30;69.80
14349;DHT22;7258;50.376;8.742;2023-07-13T10:45:14;26.30;69.70
14349;DHT22;7258;50.376;8.742;2023-07-13T10:47:18;26.20;69.00
14349;DHT22;7258;50.376;8.742;2023-07-13T10:49:22;26.40;68.10
14349;DHT22;7258;50.376;8.742;2023-07-13T10:51:26;26.30;68.20
14349;DHT22;7258;50.376;8.742;2023-07-13T10:53:32;26.00;67.50
14349;DHT22;7258;50.376;8.742;2023-07-13T10:55:40;25.70;67.80
14349;DHT22;7258;50.376;8.742;2023-07-13T10:58:02;25.30;67.90
14349;DHT22;7258;50.376;8.742;2023-07-13T11:00:16;25.00;69.70
14349;DHT22;7258;50.376;8.742;2023-07-13T11:02:25;25.00;68.30
14349;DHT22;7258;50.376;8.742;2023-07-13T11:04:39;25.30;68.90
14349;DHT22;7258;50.376;8.742;2023-07-13T11:06:43;25.80;68.70
14349;DHT22;7258;50.376;8.742;2023-07-13T11:08:53;26.40;68.00
14349;DHT22;7258;50.376;8.742;2023-07-13T11:10:57;26.90;67.50
14349;DHT22;7258;50.376;8.742;2023-07-13T11:13:01;27.20;65.60
14349;DHT22;7258;50.376;8.742;2023-07-13T11:15:07;26.80;62.90
14349;DHT22;7258;50.376;8.742;2023-07-13T11:17:34;26.40;64.20
14349;DHT22;7258;50.376;8.742;2023-07-13T11:19:41;26.50;64.30
14349;DHT22;7258;50.376;8.742;2023-07-13T11:22:02;26.60;64.70
14349;DHT22;7258;50.376;8.742;2023-07-13T11:24:15;26.90;65.10
14349;DHT22;7258;50.376;8.742;2023-07-13T11:26:41;27.00;64.70
14349;DHT22;7258;50.376;8.742;2023-07-13T11:28:49;27.20;64.50
14349;DHT22;7258;50.376;8.742;2023-07-13T11:31:13;27.00;63.00
14349;DHT22;7258;50.376;8.742;2023-07-13T11:33:20;26.80;63.90
14349;DHT22;7258;50.376;8.742;2023-07-13T11:35:25;26.70;64.40
14349;DHT22;7258;50.376;8.742;2023-07-13T11:37:29;26.00;66.20
14349;DHT22;7258;50.376;8.742;2023-07-13T11:39:35;25.60;67.20
14349;DHT22;7258;50.376;8.742;2023-07-13T11:41:50;25.40;68.20
14349;DHT22;7258;50.376;8.742;2023-07-13T11:44:05;25.70;68.70
14349;DHT22;7258;50.376;8.742;2023-07-13T11:46:15;25.80;67.00
14349;DHT22;7258;50.376;8.742;2023-07-13T11:48:24;25.70;67.00
14349;DHT22;7258;50.376;8.742;2023-07-13T11:50:27;25.80;67.00
14349;DHT22;7258;50.376;8.742;2023-07-13T11:52:34;25.70;66.40
14349;DHT22;7258;50.376;8.742;2023-07-13T11:54:46;26.00;67.00
14349;DHT22;7258;50.376;8.742;2023-07-13T11:56:52;26.50;67.50
14349;DHT22;7258;50.376;8.742;2023-07-13T11:58:59;27.00;65.00
14349;DHT22;7258;50.376;8.742;2023-07-13T12:01:05;27.30;65.30
14349;DHT22;7258;50.376;8.742;2023-07-13T12:03:11;27.30;63.70
14349;DHT22;7258;50.376;8.742;2023-07-13T12:05:17;27.10;63.60
14349;DHT22;7258;50.376;8.742;2023-07-13T12:07:19;26.40;65.70
14349;DHT22;7258;50.376;8.742;2023-07-13T12:09:22;26.10;67.80
14349;DHT22;7258;50.376;8.742;2023-07-13T12:11:27;26.10;69.10
14349;DHT22;7258;50.376;8.742;2023-07-13T12:13:35;25.90;68.80
14349;DHT22;7258;50.376;8.742;2023-07-13T12:15:40;25.70;68.90
14349;DHT22;7258;50.376;8.742;2023-07-13T12:17:45;25.80;69.60
14349;DHT22;7258;50.376;8.742;2023-07-13T12:19:48;25.60;69.80
14349;DHT22;7258;50.376;8.742;2023-07-13T12:21:54;25.60;69.70
14349;DHT22;7258;50.376;8.742;2023-07-13T12:24:01;25.80;69.70
14349;DHT22;7258;50.376;8.742;2023-07-13T12:26:06;26.30;69.70
14349;DHT22;7258;50.376;8.742;2023-07-13T12:28:21;26.80;68.10
14349;DHT22;7258;50.376;8.742;2023-07-13T12:30:27;26.70;67.10
14349;DHT22;7258;50.376;8.742;2023-07-13T12:32:33;26.60;68.20
14349;DHT22;7258;50.376;8.742;2023-07-13T12:34:52;26.40;67.30
14349;DHT22;7258;50.376;8.742;2023-07-13T12:36:56;26.20;67.60
14349;DHT22;7258;50.376;8.742;2023-07-13T12:39:12;26.10;67.20
14349;DHT22;7258;50.376;8.742;2023-07-13T12:41:15;26.10;67.30
14349;DHT22;7258;50.376;8.742;2023-07-13T12:43:20;26.30;66.60
14349;DHT22;7258;50.376;8.742;2023-07-13T12:45:24;26.30;66.50
14349;DHT22;7258;50.376;8.742;2023-07-13T12:47:29;26.50;66.70
14349;DHT22;7258;50.376;8.742;2023-07-13T12:49:41;26.50;66.20
14349;DHT22;7258;50.376;8.742;2023-07-13T12:51:44;26.80;64.90
14349;DHT22;7258;50.376;8.742;2023-07-13T12:53:49;27.00;65.80
14349;DHT22;7258;50.376;8.742;2023-07-13T12:55:57;27.00;64.90
14349;DHT22;7258;50.376;8.742;2023-07-13T12:58:03;26.70;64.40
14349;DHT22;7258;50.376;8.742;2023-07-13T13:00:21;26.30;65.10
14349;DHT22;7258;50.376;8.742;2023-07-13T13:02:29;26.50;65.80
14349;DHT22;7258;50.376;8.742;2023-07-13T13:04:39;26.80;65.80
14349;DHT22;7258;50.376;8.742;2023-07-13T13:06:43;26.80;64.40
14349;DHT22;7258;50.376;8.742;2023-07-13T13:08:47;26.50;64.40
14349;DHT22;7258;50.376;8.742;2023-07-13T13:10:51;26.30;65.30
14349;DHT22;7258;50.376;8.742;2023-07-13T13:12:54;26.30;65.80
14349;DHT22;7258;50.376;8.742;2023-07-13T13:14:57;26.30;66.30
14349;DHT22;7258;50.376;8.742;2023-07-13T13:17:00;26.30;65.90
14349;DHT22;7258;50.376;8.742;2023-07-13T13:19:15;26.40;65.70
14349;DHT22;7258;50.376;8.742;2023-07-13T13:21:22;26.10;66.10
14349;DHT22;7258;50.376;8.742;2023-07-13T13:23:26;26.00;66.50